sensor_id;sensor_type;location;lat;lon;timestamp;P1;durP1;ratioP1;P2;durP2;ratioP2
65583;SDS011;70321;43.592;1.456;2023-06-04T00:01:10;6.97;;;2.60;;
65583;SDS011;70321;43.592;1.456;2023-06-04T00:03:35;4.35;;;2.80;;
65583;SDS011;70321;43.592;1.456;2023-06-04T00:06:01;4.13;;;2.40;;
65583;SDS011;70321;43.592;1.456;2023-06-04T00:08:26;3.97;;;2.42;;
65583;SDS011;70321;43.592;1.456;2023-06-04T00:10:52;4.85;;;2.60;;
65583;SDS011;70321;43.592;1.456;2023-06-04T00:13:17;5.80;;;2.67;;
65583;SDS011;70321;43.592;1.456;2023-06-04T00:15:42;4.53;;;2.60;;
65583;SDS011;70321;43.592;1.456;2023-06-04T00:18:08;5.20;;;2.45;;
65583;SDS011;70321;43.592;1.456;2023-06-04T00:20:36;4.82;;;2.70;;
65583;SDS011;70321;43.592;1.456;2023-06-04T00:23:01;5.32;;;2.70;;
65583;SDS011;70321;43.592;1.456;2023-06-04T00:25:27;6.65;;;2.67;;
65583;SDS011;70321;43.592;1.456;2023-06-04T00:27:52;4.82;;;2.78;;
65583;SDS011;70321;43.592;1.456;2023-06-04T00:30:18;3.97;;;2.45;;
65583;SDS011;70321;43.592;1.456;2023-06-04T00:32:43;4.45;;;2.40;;
65583;SDS011;70321;43.592;1.456;2023-06-04T00:35:09;6.68;;;2.67;;
65583;SDS011;70321;43.592;1.456;2023-06-04T00:37:34;3.95;;;2.47;;
65583;SDS011;70321;43.592;1.456;2023-06-04T00:40:00;6.03;;;2.78;;
65583;SDS011;70321;43.592;1.456;2023-06-04T00:42:25;5.13;;;2.47;;
65583;SDS011;70321;43.592;1.456;2023-06-04T00:44:51;5.07;;;2.50;;
65583;SDS011;70321;43.592;1.456;2023-06-04T00:47:17;4.68;;;2.70;;
65583;SDS011;70321;43.592;1.456;2023-06-04T00:49:44;4.75;;;2.55;;
65583;SDS011;70321;43.592;1.456;2023-06-04T00:52:11;4.50;;;2.80;;
65583;SDS011;70321;43.592;1.456;2023-06-04T00:54:40;4.53;;;2.95;;
65583;SDS011;70321;43.592;1.456;2023-06-04T00:57:06;5.90;;;2.65;;
65583;SDS011;70321;43.592;1.456;2023-06-04T00:59:33;5.22;;;2.97;;
65583;SDS011;70321;43.592;1.456;2023-06-04T01:02:03;5.88;;;2.67;;
65583;SDS011;70321;43.592;1.456;2023-06-04T01:04:40;4.25;;;2.80;;
65583;SDS011;70321;43.592;1.456;2023-06-04T01:07:10;7.00;;;3.05;;
65583;SDS011;70321;43.592;1.456;2023-06-04T01:09:38;4.78;;;3.05;;
65583;SDS011;70321;43.592;1.456;2023-06-04T01:12:04;6.65;;;2.75;;
65583;SDS011;70321;43.592;1.456;2023-06-04T01:14:30;5.68;;;2.80;;
65583;SDS011;70321;43.592;1.456;2023-06-04T01:16:59;6.63;;;2.90;;
65583;SDS011;70321;43.592;1.456;2023-06-04T01:22:39;5.47;;;2.90;;
65583;SDS011;70321;43.592;1.456;2023-06-04T01:27:50;5.90;;;2.83;;
65583;SDS011;70321;43.592;1.456;2023-06-04T01:30:19;4.05;;;2.72;;
65583;SDS011;70321;43.592;1.456;2023-06-04T01:32:48;6.32;;;2.90;;
65583;SDS011;70321;43.592;1.456;2023-06-04T01:35:13;6.57;;;3.42;;
65583;SDS011;70321;43.592;1.456;2023-06-04T01:37:39;4.68;;;2.53;;
65583;SDS011;70321;43.592;1.456;2023-06-04T01:40:05;4.70;;;2.67;;
65583;SDS011;70321;43.592;1.456;2023-06-04T01:42:33;6.25;;;2.80;;
65583;SDS011;70321;43.592;1.456;2023-06-04T01:44:59;3.75;;;2.63;;
65583;SDS011;70321;43.592;1.456;2023-06-04T01:47:25;5.38;;;2.60;;
65583;SDS011;70321;43.592;1.456;2023-06-04T01:49:50;5.72;;;2.90;;
65583;SDS011;70321;43.592;1.456;2023-06-04T01:52:15;4.78;;;2.75;;
65583;SDS011;70321;43.592;1.456;2023-06-04T01:54:41;6.18;;;3.17;;
65583;SDS011;70321;43.592;1.456;2023-06-04T01:57:07;6.45;;;2.78;;
65583;SDS011;70321;43.592;1.456;2023-06-04T01:59:35;4.93;;;2.95;;
65583;SDS011;70321;43.592;1.456;2023-06-04T02:02:01;4.57;;;2.88;;
65583;SDS011;70321;43.592;1.456;2023-06-04T02:04:27;4.53;;;2.95;;
65583;SDS011;70321;43.592;1.456;2023-06-04T02:06:53;7.15;;;3.05;;
65583;SDS011;70321;43.592;1.456;2023-06-04T02:09:19;5.10;;;2.70;;
65583;SDS011;70321;43.592;1.456;2023-06-04T02:11:44;5.38;;;3.00;;
65583;SDS011;70321;43.592;1.456;2023-06-04T02:14:10;5.28;;;2.83;;
65583;SDS011;70321;43.592;1.456;2023-06-04T02:16:35;6.72;;;2.80;;
65583;SDS011;70321;43.592;1.456;2023-06-04T02:19:00;6.72;;;2.70;;
65583;SDS011;70321;43.592;1.456;2023-06-04T02:21:28;4.25;;;2.90;;
65583;SDS011;70321;43.592;1.456;2023-06-04T02:23:53;7.40;;;2.72;;
65583;SDS011;70321;43.592;1.456;2023-06-04T02:26:18;5.15;;;2.88;;
65583;SDS011;70321;43.592;1.456;2023-06-04T02:28:44;3.92;;;2.83;;
65583;SDS011;70321;43.592;1.456;2023-06-04T02:31:09;6.13;;;2.75;;
65583;SDS011;70321;43.592;1.456;2023-06-04T02:33:35;5.95;;;2.78;;
65583;SDS011;70321;43.592;1.456;2023-06-04T02:36:00;6.43;;;3.10;;
65583;SDS011;70321;43.592;1.456;2023-06-04T02:38:27;6.53;;;2.50;;
65583;SDS011;70321;43.592;1.456;2023-06-04T02:40:52;5.00;;;2.58;;
65583;SDS011;70321;43.592;1.456;2023-06-04T02:43:17;5.22;;;2.70;;
65583;SDS011;70321;43.592;1.456;2023-06-04T02:45:43;5.40;;;2.50;;
65583;SDS011;70321;43.592;1.456;2023-06-04T02:48:08;4.25;;;2.58;;
65583;SDS011;70321;43.592;1.456;2023-06-04T02:50:34;4.45;;;2.50;;
65583;SDS011;70321;43.592;1.456;2023-06-04T02:53:00;5.57;;;2.67;;
65583;SDS011;70321;43.592;1.456;2023-06-04T02:55:25;4.25;;;2.58;;
65583;SDS011;70321;43.592;1.456;2023-06-04T02:57:51;4.57;;;2.63;;
65583;SDS011;70321;43.592;1.456;2023-06-04T03:00:17;4.82;;;2.70;;
65583;SDS011;70321;43.592;1.456;2023-06-04T03:02:43;4.20;;;2.60;;
65583;SDS011;70321;43.592;1.456;2023-06-04T03:05:14;4.85;;;2.60;;
65583;SDS011;70321;43.592;1.456;2023-06-04T03:07:41;4.25;;;2.78;;
65583;SDS011;70321;43.592;1.456;2023-06-04T03:10:11;5.70;;;2.70;;
65583;SDS011;70321;43.592;1.456;2023-06-04T03:12:37;5.30;;;2.47;;
65583;SDS011;70321;43.592;1.456;2023-06-04T03:15:03;5.13;;;2.78;;
65583;SDS011;70321;43.592;1.456;2023-06-04T03:17:29;4.07;;;2.60;;
65583;SDS011;70321;43.592;1.456;2023-06-04T03:19:56;5.50;;;2.75;;
65583;SDS011;70321;43.592;1.456;2023-06-04T03:22:21;4.68;;;2.42;;
65583;SDS011;70321;43.592;1.456;2023-06-04T03:24:47;4.00;;;2.50;;
65583;SDS011;70321;43.592;1.456;2023-06-04T03:27:13;6.82;;;2.92;;
65583;SDS011;70321;43.592;1.456;2023-06-04T03:29:38;5.35;;;3.50;;
65583;SDS011;70321;43.592;1.456;2023-06-04T03:32:04;4.68;;;2.72;;
65583;SDS011;70321;43.592;1.456;2023-06-04T03:34:30;4.68;;;2.95;;
65583;SDS011;70321;43.592;1.456;2023-06-04T03:36:58;3.97;;;2.58;;
65583;SDS011;70321;43.592;1.456;2023-06-04T03:39:24;4.25;;;2.60;;
65583;SDS011;70321;43.592;1.456;2023-06-04T03:41:50;4.65;;;2.50;;
65583;SDS011;70321;43.592;1.456;2023-06-04T03:44:16;4.30;;;2.60;;
65583;SDS011;70321;43.592;1.456;2023-06-04T03:46:43;5.28;;;2.60;;
65583;SDS011;70321;43.592;1.456;2023-06-04T03:49:09;4.38;;;2.65;;
65583;SDS011;70321;43.592;1.456;2023-06-04T03:51:36;5.55;;;3.00;;
65583;SDS011;70321;43.592;1.456;2023-06-04T03:54:02;5.57;;;2.80;;
65583;SDS011;70321;43.592;1.456;2023-06-04T03:56:27;6.60;;;2.65;;
65583;SDS011;70321;43.592;1.456;2023-06-04T03:58:53;5.75;;;2.53;;
65583;SDS011;70321;43.592;1.456;2023-06-04T04:01:19;4.20;;;2.97;;
65583;SDS011;70321;43.592;1.456;2023-06-04T04:03:44;5.13;;;3.10;;
65583;SDS011;70321;43.592;1.456;2023-06-04T04:06:14;5.60;;;3.08;;
65583;SDS011;70321;43.592;1.456;2023-06-04T04:08:40;5.35;;;2.80;;
65583;SDS011;70321;43.592;1.456;2023-06-04T04:11:12;5.30;;;2.88;;
65583;SDS011;70321;43.592;1.456;2023-06-04T04:13:39;6.15;;;3.20;;
65583;SDS011;70321;43.592;1.456;2023-06-04T04:16:04;4.68;;;2.90;;
65583;SDS011;70321;43.592;1.456;2023-06-04T04:18:33;5.97;;;3.13;;
65583;SDS011;70321;43.592;1.456;2023-06-04T04:21:00;4.60;;;3.10;;
65583;SDS011;70321;43.592;1.456;2023-06-04T04:23:26;6.65;;;2.85;;
65583;SDS011;70321;43.592;1.456;2023-06-04T04:25:52;5.05;;;2.90;;
65583;SDS011;70321;43.592;1.456;2023-06-04T04:28:18;7.70;;;3.08;;
65583;SDS011;70321;43.592;1.456;2023-06-04T04:30:44;7.30;;;3.25;;
65583;SDS011;70321;43.592;1.456;2023-06-04T04:33:09;5.20;;;2.97;;
65583;SDS011;70321;43.592;1.456;2023-06-04T04:35:35;4.90;;;2.92;;
65583;SDS011;70321;43.592;1.456;2023-06-04T04:38:02;6.65;;;3.08;;
65583;SDS011;70321;43.592;1.456;2023-06-04T04:40:30;5.00;;;2.72;;
65583;SDS011;70321;43.592;1.456;2023-06-04T04:42:56;5.35;;;2.92;;
65583;SDS011;70321;43.592;1.456;2023-06-04T04:45:21;6.20;;;2.97;;
65583;SDS011;70321;43.592;1.456;2023-06-04T04:47:47;4.57;;;2.90;;
65583;SDS011;70321;43.592;1.456;2023-06-04T04:50:12;5.38;;;3.13;;
65583;SDS011;70321;43.592;1.456;2023-06-04T04:52:38;5.32;;;3.00;;
65583;SDS011;70321;43.592;1.456;2023-06-04T04:55:04;5.13;;;2.60;;
65583;SDS011;70321;43.592;1.456;2023-06-04T04:57:30;4.63;;;2.85;;
65583;SDS011;70321;43.592;1.456;2023-06-04T04:59:55;4.90;;;2.70;;
65583;SDS011;70321;43.592;1.456;2023-06-04T05:02:21;4.15;;;2.75;;
65583;SDS011;70321;43.592;1.456;2023-06-04T05:04:46;5.22;;;2.90;;
65583;SDS011;70321;43.592;1.456;2023-06-04T05:07:12;4.22;;;2.70;;
65583;SDS011;70321;43.592;1.456;2023-06-04T05:09:37;6.13;;;2.80;;
65583;SDS011;70321;43.592;1.456;2023-06-04T05:12:03;5.70;;;2.70;;
65583;SDS011;70321;43.592;1.456;2023-06-04T05:14:28;4.78;;;2.75;;
65583;SDS011;70321;43.592;1.456;2023-06-04T05:16:54;4.15;;;2.80;;
65583;SDS011;70321;43.592;1.456;2023-06-04T05:19:23;5.28;;;2.70;;
65583;SDS011;70321;43.592;1.456;2023-06-04T05:21:49;5.07;;;2.75;;
65583;SDS011;70321;43.592;1.456;2023-06-04T05:24:14;5.50;;;3.03;;
65583;SDS011;70321;43.592;1.456;2023-06-04T05:26:40;8.18;;;2.80;;
65583;SDS011;70321;43.592;1.456;2023-06-04T05:29:06;7.95;;;3.08;;
65583;SDS011;70321;43.592;1.456;2023-06-04T05:31:32;6.15;;;3.20;;
65583;SDS011;70321;43.592;1.456;2023-06-04T05:34:00;4.32;;;2.78;;
65583;SDS011;70321;43.592;1.456;2023-06-04T05:36:31;3.97;;;2.90;;
65583;SDS011;70321;43.592;1.456;2023-06-04T05:38:57;5.35;;;2.90;;
65583;SDS011;70321;43.592;1.456;2023-06-04T05:41:25;7.78;;;2.50;;
65583;SDS011;70321;43.592;1.456;2023-06-04T05:43:52;4.13;;;2.88;;
65583;SDS011;70321;43.592;1.456;2023-06-04T05:46:17;5.72;;;2.75;;
65583;SDS011;70321;43.592;1.456;2023-06-04T05:48:43;6.03;;;2.80;;
65583;SDS011;70321;43.592;1.456;2023-06-04T05:51:08;4.85;;;2.78;;
65583;SDS011;70321;43.592;1.456;2023-06-04T05:53:34;8.90;;;2.78;;
65583;SDS011;70321;43.592;1.456;2023-06-04T05:55:59;4.32;;;2.80;;
65583;SDS011;70321;43.592;1.456;2023-06-04T05:58:25;5.78;;;2.85;;
65583;SDS011;70321;43.592;1.456;2023-06-04T06:00:50;4.72;;;2.95;;
65583;SDS011;70321;43.592;1.456;2023-06-04T06:03:16;6.75;;;3.30;;
65583;SDS011;70321;43.592;1.456;2023-06-04T06:05:42;5.78;;;2.97;;
65583;SDS011;70321;43.592;1.456;2023-06-04T06:08:08;6.35;;;3.00;;
65583;SDS011;70321;43.592;1.456;2023-06-04T06:10:33;4.88;;;3.05;;
65583;SDS011;70321;43.592;1.456;2023-06-04T06:12:59;6.25;;;3.00;;
65583;SDS011;70321;43.592;1.456;2023-06-04T06:15:27;5.82;;;3.20;;
65583;SDS011;70321;43.592;1.456;2023-06-04T06:17:53;5.50;;;3.38;;
65583;SDS011;70321;43.592;1.456;2023-06-04T06:20:19;7.95;;;3.20;;
65583;SDS011;70321;43.592;1.456;2023-06-04T06:22:45;5.97;;;3.25;;
65583;SDS011;70321;43.592;1.456;2023-06-04T06:25:11;4.88;;;3.20;;
65583;SDS011;70321;43.592;1.456;2023-06-04T06:27:38;9.18;;;3.58;;
65583;SDS011;70321;43.592;1.456;2023-06-04T06:30:05;5.90;;;3.33;;
65583;SDS011;70321;43.592;1.456;2023-06-04T06:32:31;5.88;;;3.40;;
65583;SDS011;70321;43.592;1.456;2023-06-04T06:34:57;7.80;;;3.65;;
65583;SDS011;70321;43.592;1.456;2023-06-04T06:37:22;5.38;;;3.40;;
65583;SDS011;70321;43.592;1.456;2023-06-04T06:39:48;7.88;;;4.10;;
65583;SDS011;70321;43.592;1.456;2023-06-04T06:42:13;6.72;;;3.85;;
65583;SDS011;70321;43.592;1.456;2023-06-04T06:44:39;7.70;;;3.58;;
65583;SDS011;70321;43.592;1.456;2023-06-04T06:47:04;6.30;;;3.60;;
65583;SDS011;70321;43.592;1.456;2023-06-04T06:49:30;8.13;;;3.65;;
65583;SDS011;70321;43.592;1.456;2023-06-04T06:51:55;5.97;;;3.80;;
65583;SDS011;70321;43.592;1.456;2023-06-04T06:54:21;5.75;;;3.30;;
65583;SDS011;70321;43.592;1.456;2023-06-04T06:56:47;6.25;;;3.50;;
65583;SDS011;70321;43.592;1.456;2023-06-04T06:59:14;5.95;;;3.50;;
65583;SDS011;70321;43.592;1.456;2023-06-04T07:01:40;8.65;;;3.80;;
65583;SDS011;70321;43.592;1.456;2023-06-04T07:04:05;7.07;;;3.75;;
65583;SDS011;70321;43.592;1.456;2023-06-04T07:06:31;4.78;;;3.38;;
65583;SDS011;70321;43.592;1.456;2023-06-04T07:08:57;6.90;;;3.63;;
65583;SDS011;70321;43.592;1.456;2023-06-04T07:11:22;5.88;;;3.30;;
65583;SDS011;70321;43.592;1.456;2023-06-04T07:13:48;5.78;;;3.83;;
65583;SDS011;70321;43.592;1.456;2023-06-04T07:16:13;5.43;;;3.20;;
65583;SDS011;70321;43.592;1.456;2023-06-04T07:18:39;4.82;;;3.03;;
65583;SDS011;70321;43.592;1.456;2023-06-04T07:21:04;6.38;;;3.38;;
65583;SDS011;70321;43.592;1.456;2023-06-04T07:23:30;7.18;;;3.40;;
65583;SDS011;70321;43.592;1.456;2023-06-04T07:25:55;7.28;;;3.42;;
65583;SDS011;70321;43.592;1.456;2023-06-04T07:28:21;5.30;;;3.58;;
65583;SDS011;70321;43.592;1.456;2023-06-04T07:30:47;6.38;;;3.70;;
65583;SDS011;70321;43.592;1.456;2023-06-04T07:33:13;6.28;;;3.80;;
65583;SDS011;70321;43.592;1.456;2023-06-04T07:35:38;7.30;;;3.50;;
65583;SDS011;70321;43.592;1.456;2023-06-04T07:38:04;5.00;;;3.58;;
65583;SDS011;70321;43.592;1.456;2023-06-04T07:40:29;5.03;;;3.47;;
65583;SDS011;70321;43.592;1.456;2023-06-04T07:42:55;7.45;;;3.38;;
65583;SDS011;70321;43.592;1.456;2023-06-04T07:45:20;7.60;;;3.42;;
65583;SDS011;70321;43.592;1.456;2023-06-04T07:47:46;5.00;;;3.25;;
65583;SDS011;70321;43.592;1.456;2023-06-04T07:50:12;5.40;;;3.22;;
65583;SDS011;70321;43.592;1.456;2023-06-04T07:52:37;5.63;;;3.38;;
65583;SDS011;70321;43.592;1.456;2023-06-04T07:55:03;5.47;;;3.50;;
65583;SDS011;70321;43.592;1.456;2023-06-04T07:57:29;7.18;;;3.38;;
65583;SDS011;70321;43.592;1.456;2023-06-04T07:59:54;5.60;;;2.92;;
65583;SDS011;70321;43.592;1.456;2023-06-04T08:02:21;6.88;;;3.50;;
65583;SDS011;70321;43.592;1.456;2023-06-04T08:04:47;4.63;;;3.10;;
65583;SDS011;70321;43.592;1.456;2023-06-04T08:07:13;4.35;;;3.22;;
65583;SDS011;70321;43.592;1.456;2023-06-04T08:09:38;4.53;;;2.90;;
65583;SDS011;70321;43.592;1.456;2023-06-04T08:12:04;4.70;;;3.08;;
65583;SDS011;70321;43.592;1.456;2023-06-04T08:14:30;4.63;;;2.83;;
65583;SDS011;70321;43.592;1.456;2023-06-04T08:16:56;6.40;;;3.00;;
65583;SDS011;70321;43.592;1.456;2023-06-04T08:19:22;6.20;;;2.90;;
65583;SDS011;70321;43.592;1.456;2023-06-04T08:21:48;4.95;;;2.95;;
65583;SDS011;70321;43.592;1.456;2023-06-04T08:24:14;5.60;;;2.90;;
65583;SDS011;70321;43.592;1.456;2023-06-04T08:26:40;4.90;;;2.90;;
65583;SDS011;70321;43.592;1.456;2023-06-04T08:29:06;4.03;;;3.00;;
65583;SDS011;70321;43.592;1.456;2023-06-04T08:31:32;4.22;;;2.85;;
65583;SDS011;70321;43.592;1.456;2023-06-04T08:33:58;5.57;;;2.97;;
65583;SDS011;70321;43.592;1.456;2023-06-04T08:36:24;4.93;;;2.95;;
65583;SDS011;70321;43.592;1.456;2023-06-04T08:38:49;4.07;;;3.03;;
65583;SDS011;70321;43.592;1.456;2023-06-04T08:41:23;4.55;;;2.90;;
65583;SDS011;70321;43.592;1.456;2023-06-04T08:43:55;3.65;;;2.75;;
65583;SDS011;70321;43.592;1.456;2023-06-04T08:46:22;6.07;;;2.88;;
65583;SDS011;70321;43.592;1.456;2023-06-04T08:48:49;5.32;;;2.72;;
65583;SDS011;70321;43.592;1.456;2023-06-04T08:51:14;4.15;;;2.92;;
65583;SDS011;70321;43.592;1.456;2023-06-04T08:53:40;4.05;;;2.72;;
65583;SDS011;70321;43.592;1.456;2023-06-04T08:56:07;5.05;;;3.00;;
65583;SDS011;70321;43.592;1.456;2023-06-04T08:58:36;6.68;;;3.00;;
65583;SDS011;70321;43.592;1.456;2023-06-04T09:01:05;3.45;;;2.70;;
65583;SDS011;70321;43.592;1.456;2023-06-04T09:03:30;4.03;;;2.72;;
65583;SDS011;70321;43.592;1.456;2023-06-04T09:05:57;4.20;;;2.60;;
65583;SDS011;70321;43.592;1.456;2023-06-04T09:08:23;4.15;;;2.83;;
65583;SDS011;70321;43.592;1.456;2023-06-04T09:10:50;4.10;;;2.70;;
65583;SDS011;70321;43.592;1.456;2023-06-04T09:13:17;5.00;;;2.80;;
65583;SDS011;70321;43.592;1.456;2023-06-04T09:15:44;5.35;;;2.90;;
65583;SDS011;70321;43.592;1.456;2023-06-04T09:18:11;4.95;;;2.55;;
65583;SDS011;70321;43.592;1.456;2023-06-04T09:20:37;4.10;;;2.28;;
65583;SDS011;70321;43.592;1.456;2023-06-04T09:23:12;4.38;;;2.60;;
65583;SDS011;70321;43.592;1.456;2023-06-04T09:25:41;3.45;;;2.60;;
65583;SDS011;70321;43.592;1.456;2023-06-04T09:28:07;3.95;;;2.40;;
65583;SDS011;70321;43.592;1.456;2023-06-04T09:30:33;3.78;;;2.50;;
65583;SDS011;70321;43.592;1.456;2023-06-04T09:33:10;3.58;;;2.60;;
65583;SDS011;70321;43.592;1.456;2023-06-04T09:35:37;5.82;;;2.47;;
65583;SDS011;70321;43.592;1.456;2023-06-04T09:38:04;5.88;;;2.75;;
65583;SDS011;70321;43.592;1.456;2023-06-04T09:40:36;3.80;;;2.30;;
65583;SDS011;70321;43.592;1.456;2023-06-04T09:43:02;4.63;;;2.42;;
65583;SDS011;70321;43.592;1.456;2023-06-04T09:45:28;4.97;;;2.30;;
65583;SDS011;70321;43.592;1.456;2023-06-04T09:47:57;4.78;;;2.40;;
65583;SDS011;70321;43.592;1.456;2023-06-04T09:50:30;4.78;;;2.38;;
65583;SDS011;70321;43.592;1.456;2023-06-04T09:52:56;3.75;;;2.33;;
65583;SDS011;70321;43.592;1.456;2023-06-04T09:55:22;4.50;;;2.53;;
65583;SDS011;70321;43.592;1.456;2023-06-04T09:57:48;5.05;;;2.60;;
65583;SDS011;70321;43.592;1.456;2023-06-04T10:00:16;3.83;;;2.03;;
65583;SDS011;70321;43.592;1.456;2023-06-04T10:02:46;4.65;;;2.50;;
65583;SDS011;70321;43.592;1.456;2023-06-04T10:05:13;4.65;;;2.33;;
65583;SDS011;70321;43.592;1.456;2023-06-04T10:07:43;3.97;;;2.13;;
65583;SDS011;70321;43.592;1.456;2023-06-04T10:12:44;4.57;;;2.30;;
65583;SDS011;70321;43.592;1.456;2023-06-04T10:15:13;3.53;;;2.30;;
65583;SDS011;70321;43.592;1.456;2023-06-04T10:17:39;4.88;;;2.28;;
65583;SDS011;70321;43.592;1.456;2023-06-04T10:20:06;4.43;;;2.03;;
65583;SDS011;70321;43.592;1.456;2023-06-04T10:22:34;3.85;;;2.30;;
65583;SDS011;70321;43.592;1.456;2023-06-04T10:25:02;4.25;;;2.38;;
65583;SDS011;70321;43.592;1.456;2023-06-04T10:27:30;3.22;;;2.22;;
65583;SDS011;70321;43.592;1.456;2023-06-04T10:29:57;5.20;;;2.50;;
65583;SDS011;70321;43.592;1.456;2023-06-04T10:32:23;5.53;;;2.30;;
65583;SDS011;70321;43.592;1.456;2023-06-04T10:34:52;3.80;;;2.17;;
65583;SDS011;70321;43.592;1.456;2023-06-04T10:37:21;2.92;;;2.10;;
65583;SDS011;70321;43.592;1.456;2023-06-04T10:39:51;3.53;;;2.10;;
65583;SDS011;70321;43.592;1.456;2023-06-04T10:44:47;3.63;;;2.10;;
65583;SDS011;70321;43.592;1.456;2023-06-04T10:47:21;6.18;;;2.13;;
65583;SDS011;70321;43.592;1.456;2023-06-04T10:49:47;3.33;;;2.17;;
65583;SDS011;70321;43.592;1.456;2023-06-04T10:52:14;3.28;;;2.08;;
65583;SDS011;70321;43.592;1.456;2023-06-04T10:54:41;5.40;;;1.90;;
65583;SDS011;70321;43.592;1.456;2023-06-04T10:57:13;4.03;;;2.20;;
65583;SDS011;70321;43.592;1.456;2023-06-04T10:59:40;3.50;;;1.98;;
65583;SDS011;70321;43.592;1.456;2023-06-04T11:02:06;2.38;;;1.85;;
65583;SDS011;70321;43.592;1.456;2023-06-04T11:04:32;3.78;;;1.90;;
65583;SDS011;70321;43.592;1.456;2023-06-04T11:07:01;3.90;;;2.15;;
65583;SDS011;70321;43.592;1.456;2023-06-04T11:09:49;3.60;;;2.00;;
65583;SDS011;70321;43.592;1.456;2023-06-04T11:12:15;3.40;;;2.10;;
65583;SDS011;70321;43.592;1.456;2023-06-04T11:14:41;3.63;;;2.10;;
65583;SDS011;70321;43.592;1.456;2023-06-04T11:17:18;5.03;;;1.98;;
65583;SDS011;70321;43.592;1.456;2023-06-04T11:19:43;3.53;;;1.98;;
65583;SDS011;70321;43.592;1.456;2023-06-04T11:22:11;3.28;;;1.88;;
65583;SDS011;70321;43.592;1.456;2023-06-04T11:24:37;3.90;;;2.08;;
65583;SDS011;70321;43.592;1.456;2023-06-04T11:27:03;2.70;;;1.67;;
65583;SDS011;70321;43.592;1.456;2023-06-04T11:29:28;3.47;;;1.80;;
65583;SDS011;70321;43.592;1.456;2023-06-04T11:31:54;2.33;;;1.80;;
65583;SDS011;70321;43.592;1.456;2023-06-04T11:34:29;3.95;;;1.70;;
65583;SDS011;70321;43.592;1.456;2023-06-04T11:37:06;3.55;;;1.70;;
65583;SDS011;70321;43.592;1.456;2023-06-04T11:39:36;4.03;;;1.80;;
65583;SDS011;70321;43.592;1.456;2023-06-04T11:42:04;3.70;;;1.70;;
65583;SDS011;70321;43.592;1.456;2023-06-04T11:44:31;3.50;;;1.80;;
65583;SDS011;70321;43.592;1.456;2023-06-04T11:46:56;3.20;;;1.80;;
65583;SDS011;70321;43.592;1.456;2023-06-04T11:49:21;4.25;;;1.77;;
65583;SDS011;70321;43.592;1.456;2023-06-04T11:51:48;3.65;;;1.67;;
65583;SDS011;70321;43.592;1.456;2023-06-04T11:54:17;3.78;;;1.60;;
65583;SDS011;70321;43.592;1.456;2023-06-04T11:56:44;3.20;;;1.60;;
65583;SDS011;70321;43.592;1.456;2023-06-04T11:59:13;2.80;;;1.50;;
65583;SDS011;70321;43.592;1.456;2023-06-04T12:01:40;3.00;;;1.50;;
65583;SDS011;70321;43.592;1.456;2023-06-04T12:06:55;3.03;;;1.50;;
65583;SDS011;70321;43.592;1.456;2023-06-04T12:09:26;3.03;;;1.60;;
65583;SDS011;70321;43.592;1.456;2023-06-04T12:12:03;2.95;;;1.65;;
65583;SDS011;70321;43.592;1.456;2023-06-04T12:14:30;3.55;;;1.63;;
65583;SDS011;70321;43.592;1.456;2023-06-04T12:16:59;3.38;;;1.63;;
65583;SDS011;70321;43.592;1.456;2023-06-04T12:19:26;2.47;;;1.52;;
65583;SDS011;70321;43.592;1.456;2023-06-04T12:22:05;2.53;;;1.70;;
65583;SDS011;70321;43.592;1.456;2023-06-04T12:24:32;2.95;;;1.42;;
65583;SDS011;70321;43.592;1.456;2023-06-04T12:27:02;4.07;;;1.50;;
65583;SDS011;70321;43.592;1.456;2023-06-04T12:29:28;1.85;;;1.30;;
65583;SDS011;70321;43.592;1.456;2023-06-04T12:32:01;2.85;;;1.60;;
65583;SDS011;70321;43.592;1.456;2023-06-04T12:34:34;2.58;;;1.50;;
65583;SDS011;70321;43.592;1.456;2023-06-04T12:37:00;1.80;;;1.40;;
65583;SDS011;70321;43.592;1.456;2023-06-04T12:39:28;2.05;;;1.50;;
65583;SDS011;70321;43.592;1.456;2023-06-04T12:41:54;2.67;;;1.45;;
65583;SDS011;70321;43.592;1.456;2023-06-04T12:44:20;2.95;;;1.50;;
65583;SDS011;70321;43.592;1.456;2023-06-04T12:46:46;3.25;;;1.42;;
65583;SDS011;70321;43.592;1.456;2023-06-04T12:49:12;3.45;;;1.25;;
65583;SDS011;70321;43.592;1.456;2023-06-04T12:51:37;3.38;;;1.60;;
65583;SDS011;70321;43.592;1.456;2023-06-04T12:54:03;3.05;;;1.58;;
65583;SDS011;70321;43.592;1.456;2023-06-04T12:56:29;3.17;;;1.52;;
65583;SDS011;70321;43.592;1.456;2023-06-04T12:58:55;3.05;;;1.40;;
65583;SDS011;70321;43.592;1.456;2023-06-04T13:01:21;3.83;;;1.75;;
65583;SDS011;70321;43.592;1.456;2023-06-04T13:03:46;2.25;;;1.50;;
65583;SDS011;70321;43.592;1.456;2023-06-04T13:06:11;2.25;;;1.30;;
65583;SDS011;70321;43.592;1.456;2023-06-04T13:08:37;2.83;;;1.70;;
65583;SDS011;70321;43.592;1.456;2023-06-04T13:11:02;3.33;;;1.50;;
65583;SDS011;70321;43.592;1.456;2023-06-04T13:13:29;1.80;;;1.38;;
65583;SDS011;70321;43.592;1.456;2023-06-04T13:15:55;2.40;;;1.45;;
65583;SDS011;70321;43.592;1.456;2023-06-04T13:18:21;2.85;;;1.67;;
65583;SDS011;70321;43.592;1.456;2023-06-04T13:20:46;6.13;;;1.52;;
65583;SDS011;70321;43.592;1.456;2023-06-04T13:23:13;3.95;;;1.52;;
65583;SDS011;70321;43.592;1.456;2023-06-04T13:25:39;3.05;;;1.40;;
65583;SDS011;70321;43.592;1.456;2023-06-04T13:28:04;2.42;;;1.50;;
65583;SDS011;70321;43.592;1.456;2023-06-04T13:30:30;2.15;;;1.42;;
65583;SDS011;70321;43.592;1.456;2023-06-04T13:32:56;3.10;;;1.50;;
65583;SDS011;70321;43.592;1.456;2023-06-04T13:35:25;2.10;;;1.48;;
65583;SDS011;70321;43.592;1.456;2023-06-04T13:37:50;2.42;;;1.55;;
65583;SDS011;70321;43.592;1.456;2023-06-04T13:40:16;2.78;;;1.70;;
65583;SDS011;70321;43.592;1.456;2023-06-04T13:42:41;2.85;;;1.67;;
65583;SDS011;70321;43.592;1.456;2023-06-04T13:45:09;4.18;;;1.80;;
65583;SDS011;70321;43.592;1.456;2023-06-04T13:47:35;1.90;;;1.40;;
65583;SDS011;70321;43.592;1.456;2023-06-04T13:50:00;2.20;;;1.40;;
65583;SDS011;70321;43.592;1.456;2023-06-04T13:52:26;2.80;;;1.63;;
65583;SDS011;70321;43.592;1.456;2023-06-04T13:54:54;3.13;;;1.50;;
65583;SDS011;70321;43.592;1.456;2023-06-04T13:57:20;2.50;;;1.45;;
65583;SDS011;70321;43.592;1.456;2023-06-04T13:59:46;2.85;;;1.50;;
65583;SDS011;70321;43.592;1.456;2023-06-04T14:02:12;2.65;;;1.48;;
65583;SDS011;70321;43.592;1.456;2023-06-04T14:04:37;2.30;;;1.40;;
65583;SDS011;70321;43.592;1.456;2023-06-04T14:07:02;2.80;;;1.50;;
65583;SDS011;70321;43.592;1.456;2023-06-04T14:09:28;2.47;;;1.50;;
65583;SDS011;70321;43.592;1.456;2023-06-04T14:11:53;4.25;;;1.50;;
65583;SDS011;70321;43.592;1.456;2023-06-04T14:14:22;1.85;;;1.30;;
65583;SDS011;70321;43.592;1.456;2023-06-04T14:16:48;2.40;;;1.40;;
65583;SDS011;70321;43.592;1.456;2023-06-04T14:19:13;3.25;;;1.50;;
65583;SDS011;70321;43.592;1.456;2023-06-04T14:21:40;1.92;;;1.20;;
65583;SDS011;70321;43.592;1.456;2023-06-04T14:24:08;2.00;;;1.10;;
65583;SDS011;70321;43.592;1.456;2023-06-04T14:26:34;2.50;;;1.50;;
65583;SDS011;70321;43.592;1.456;2023-06-04T14:29:00;3.03;;;1.50;;
65583;SDS011;70321;43.592;1.456;2023-06-04T14:31:26;2.17;;;1.45;;
65583;SDS011;70321;43.592;1.456;2023-06-04T14:33:51;1.88;;;1.40;;
65583;SDS011;70321;43.592;1.456;2023-06-04T14:36:17;2.20;;;1.30;;
65583;SDS011;70321;43.592;1.456;2023-06-04T14:38:42;2.28;;;1.38;;
65583;SDS011;70321;43.592;1.456;2023-06-04T14:41:08;2.97;;;1.38;;
65583;SDS011;70321;43.592;1.456;2023-06-04T14:43:34;2.33;;;1.20;;
65583;SDS011;70321;43.592;1.456;2023-06-04T14:45:59;3.65;;;1.30;;
65583;SDS011;70321;43.592;1.456;2023-06-04T14:48:24;2.72;;;1.50;;
65583;SDS011;70321;43.592;1.456;2023-06-04T14:50:50;2.75;;;1.40;;
65583;SDS011;70321;43.592;1.456;2023-06-04T14:53:18;3.33;;;1.40;;
65583;SDS011;70321;43.592;1.456;2023-06-04T14:55:44;2.10;;;1.27;;
65583;SDS011;70321;43.592;1.456;2023-06-04T14:58:09;3.53;;;1.45;;